Orlando, Florida
Traffic Map
Current Weather Conditions
Orlando, Florida
Broken Clouds
Broken Clouds
92°
Feels Like: 99°
Wind Chill: 92° Ceiling: 30000
Heat Index: 99° Visibility: 10mi
Dew Point: 72° Wind: 6mph
Humidity: 52% Direction: 250° (WSW)
Pressure: 30.11in Gusts: 0mph
Raw Report DataKMCO 251853Z 25005KT 10SM SCT047 BKN300 33/22 A3011 RMK AO2 SLP193 T03330222
Traffic Incident Summary
Active as of:
Severity:
Category:
InformationThere was an issue retrieving the traffic information for this location. Please try a different location or try again shortly.
Advertisements
Track Severe Weather on mobile